Pagrindinis puslapis
METAR-TAF:

METAR-TAF

Oro uostai :

Medina, Saudo Arabija

platuma: 24-33N, ilguma: 039-42E, Aukštis: 654 m

Dabartinis oras

Ataskaita buvo paskelbta 24 minutes, ne 13:00 UTC
Vėjas 18 kt iš Vakarų/Pietvakarių
Temperatūra 37°C
Drėgmė 6%
Slėgis 1008 hPa
Matomumas 10 km arba daugiau
nėra debesų žemiau 1500 m ir nėra kamuolinių lietaus debesų

METAR: OEMA 201300Z 25018KT CAVOK 37/M07 Q1008 NOSIG

Laikas: 16:24 (13:24 UTC)

Prognozė

Ataskaita buvo paskelbta 2 valandos ir 24 minutes, ne 11:00 UTC
Prognozė galioja nuo 20 metu 12 UTC su 21 metu 18 UTC
Vėjas 16 kt iš Vakarų
Matomumas: 7000 m
Tapsmas
nuo 20 metu 18 UTC su 20 metu 20 UTC
Vėjas 6 kt iš Vakarų
Tapsmas
nuo 21 metu 06 UTC su 21 metu 08 UTC
Vėjas 6 kt iš Šiaurės Vakarų
Matomumas 10 km arba daugiau
nėra debesų žemiau 1500 m ir nėra kamuolinių lietaus debesų

TAF: OEMA 201100Z 2012/2118 26016KT 7000 NSC BECMG 2018/2020 27006KT BECMG 2106/2108 31006KT CAVOK

Orai ataskaitas ir orų prognozės (METAR, TAF).

turimą stotys yra geltonos ir raudonos taškus žemėlapyje.

Perkelti pele per norėdami pamatyti stoties vardą.

Tada spustelėkite, norėdami matyti oro stebėjimo ir prognozės.

Norėdami pakeisti žemėlapį: spustelėkite ant žalios mygtukų su juodo kryžiaus žemyn,; žalią mygtuką su brūkšneliu, jei norite nutolinti; arba žalių rodyklių gretimoms žemėlapius.


METAR-TAF: